createdAt,value
2023-07-18T00:00:55.202Z,18.89
2023-07-18T00:03:22.216Z,18.84
2023-07-18T00:05:49.924Z,18.84
2023-07-18T00:08:16.933Z,18.81
2023-07-18T00:10:44.022Z,18.83
2023-07-18T00:13:11.448Z,18.80
2023-07-18T00:15:39.477Z,18.78
2023-07-18T00:18:08.453Z,18.81
2023-07-18T00:20:35.516Z,18.78
2023-07-18T00:23:03.124Z,18.76
2023-07-18T00:25:30.203Z,18.67
2023-07-18T00:27:58.283Z,18.53
2023-07-18T00:30:27.804Z,18.42
2023-07-18T00:32:56.667Z,18.37
2023-07-18T00:35:24.086Z,18.31
2023-07-18T00:37:51.938Z,18.27
2023-07-18T00:40:18.953Z,18.25
2023-07-18T00:42:48.930Z,18.22
2023-07-18T00:45:16.002Z,18.15
2023-07-18T00:47:44.599Z,18.08
2023-07-18T00:50:19.122Z,18.00
2023-07-18T00:52:48.496Z,17.96
2023-07-18T00:55:17.727Z,17.90
2023-07-18T00:57:47.144Z,17.80
2023-07-18T01:00:15.017Z,17.71
2023-07-18T01:02:44.162Z,17.70
2023-07-18T01:05:17.944Z,17.72
2023-07-18T01:07:45.587Z,17.66
2023-07-18T01:10:26.442Z,17.61
2023-07-18T01:12:54.305Z,17.52
2023-07-18T01:15:25.218Z,17.45
2023-07-18T01:17:52.782Z,17.36
2023-07-18T01:20:23.045Z,17.25
2023-07-18T01:22:51.398Z,17.23
2023-07-18T01:25:20.979Z,17.11
2023-07-18T01:27:50.137Z,17.05
2023-07-18T01:30:18.666Z,17.03
2023-07-18T01:32:45.756Z,16.98
2023-07-18T01:35:12.823Z,16.93
2023-07-18T01:37:41.394Z,16.93
2023-07-18T01:40:10.160Z,16.92
2023-07-18T01:42:37.218Z,16.93
2023-07-18T01:45:06.010Z,16.90
2023-07-18T01:47:33.215Z,16.83
2023-07-18T01:50:00.855Z,16.82
2023-07-18T01:52:29.504Z,16.84
2023-07-18T01:55:03.695Z,16.82
2023-07-18T01:57:33.184Z,16.80
2023-07-18T02:00:01.199Z,16.77
2023-07-18T02:02:29.422Z,16.76
2023-07-18T02:04:59.941Z,16.72
2023-07-18T02:07:29.121Z,16.69
2023-07-18T02:09:56.700Z,16.66
2023-07-18T02:12:23.682Z,16.58
2023-07-18T02:14:50.668Z,16.46
2023-07-18T02:17:17.641Z,16.40
2023-07-18T02:19:46.715Z,16.39
2023-07-18T02:22:13.857Z,16.35
2023-07-18T02:24:42.906Z,16.29
2023-07-18T02:27:11.225Z,16.24
2023-07-18T02:29:38.583Z,16.26
2023-07-18T02:32:06.029Z,16.22
2023-07-18T02:34:33.288Z,16.21
2023-07-18T02:37:00.242Z,16.22
2023-07-18T02:39:31.769Z,16.24
2023-07-18T02:41:59.180Z,16.18
2023-07-18T02:44:26.693Z,16.07
2023-07-18T02:46:54.769Z,16.01
2023-07-18T02:49:21.705Z,15.89
2023-07-18T02:51:49.480Z,15.83
2023-07-18T02:54:19.952Z,15.81
2023-07-18T02:56:47.319Z,15.78
2023-07-18T02:59:15.760Z,15.75
2023-07-18T03:01:44.680Z,15.69
2023-07-18T03:04:12.547Z,15.69
2023-07-18T03:06:39.496Z,15.69
2023-07-18T03:09:07.418Z,15.68
2023-07-18T03:11:34.380Z,15.63
2023-07-18T03:14:01.691Z,15.62
2023-07-18T03:16:32.394Z,15.61
2023-07-18T03:19:00.617Z,15.60
2023-07-18T03:21:27.580Z,15.59
2023-07-18T03:23:57.885Z,15.61
2023-07-18T03:26:25.158Z,15.60
2023-07-18T03:28:54.289Z,15.52
2023-07-18T03:31:22.157Z,15.43
2023-07-18T03:33:49.778Z,15.27
2023-07-18T03:36:19.294Z,15.19
2023-07-18T03:38:47.485Z,15.16
2023-07-18T03:41:15.544Z,15.15
2023-07-18T03:43:42.525Z,15.15
2023-07-18T03:46:09.523Z,15.15
2023-07-18T03:48:36.566Z,15.06
2023-07-18T03:51:09.832Z,15.06
2023-07-18T03:53:37.588Z,15.10
2023-07-18T03:56:05.345Z,15.08
2023-07-18T03:58:33.767Z,15.04
2023-07-18T04:01:08.721Z,15.04
2023-07-18T04:03:36.347Z,15.08
2023-07-18T04:06:03.530Z,15.08
2023-07-18T04:08:31.473Z,15.03
2023-07-18T04:10:59.657Z,14.98
2023-07-18T04:13:27.009Z,14.98
2023-07-18T04:15:59.078Z,15.05
2023-07-18T04:18:26.147Z,15.12
2023-07-18T04:21:00.977Z,15.19
2023-07-18T04:23:28.040Z,15.23
2023-07-18T04:26:00.288Z,15.27
2023-07-18T04:28:28.466Z,15.33
2023-07-18T04:30:55.954Z,15.38
2023-07-18T04:33:23.387Z,15.38
2023-07-18T04:35:50.726Z,15.31
2023-07-18T04:38:19.193Z,15.38
2023-07-18T04:40:47.221Z,15.47
2023-07-18T04:43:14.196Z,15.54
2023-07-18T04:45:42.594Z,15.55
2023-07-18T04:48:11.217Z,15.60
2023-07-18T04:50:38.353Z,15.68
2023-07-18T04:53:05.224Z,15.80
2023-07-18T04:55:32.080Z,15.85
2023-07-18T04:57:58.935Z,15.95
2023-07-18T05:00:25.817Z,16.05
2023-07-18T05:02:52.742Z,16.14
2023-07-18T05:05:19.794Z,16.26
2023-07-18T05:07:48.444Z,16.33
2023-07-18T05:10:15.338Z,16.45
2023-07-18T05:12:42.353Z,16.57
2023-07-18T05:15:09.491Z,16.69
2023-07-18T05:17:36.436Z,16.81
2023-07-18T05:20:04.264Z,16.86
2023-07-18T05:22:31.440Z,16.91
2023-07-18T05:24:58.287Z,16.95
2023-07-18T05:27:25.117Z,17.00
2023-07-18T05:29:51.982Z,17.12
2023-07-18T05:32:18.909Z,17.23
2023-07-18T05:34:45.759Z,17.31
2023-07-18T05:37:12.626Z,17.31
2023-07-18T05:39:39.478Z,17.33
2023-07-18T05:42:06.485Z,17.32
2023-07-18T05:44:33.450Z,17.30
2023-07-18T05:47:00.961Z,17.40
2023-07-18T05:49:28.858Z,17.44
2023-07-18T05:51:55.722Z,17.53
2023-07-18T05:54:23.694Z,17.65
2023-07-18T05:56:50.601Z,17.81
2023-07-18T05:59:17.488Z,17.96
2023-07-18T06:01:45.484Z,18.08
2023-07-18T06:04:12.444Z,18.20
2023-07-18T06:06:40.218Z,18.29
2023-07-18T06:09:07.587Z,18.42
2023-07-18T06:11:34.505Z,18.57
2023-07-18T06:14:01.635Z,18.68
2023-07-18T06:16:28.953Z,18.73
2023-07-18T06:18:56.313Z,18.84
2023-07-18T06:21:25.079Z,18.94
2023-07-18T06:23:54.829Z,18.98
2023-07-18T06:26:24.201Z,19.04
2023-07-18T06:28:53.306Z,19.15
2023-07-18T06:31:22.408Z,19.26
2023-07-18T06:33:49.593Z,19.40
2023-07-18T06:36:17.247Z,19.48
2023-07-18T06:38:44.436Z,19.56
2023-07-18T06:41:13.408Z,19.62
2023-07-18T06:43:40.926Z,19.71
2023-07-18T06:46:09.072Z,19.77
2023-07-18T06:48:35.914Z,19.85
2023-07-18T06:51:07.971Z,19.86
2023-07-18T06:53:34.907Z,19.96
2023-07-18T06:56:01.846Z,20.06
2023-07-18T06:58:28.849Z,20.20
2023-07-18T07:00:55.762Z,20.27
2023-07-18T07:03:22.706Z,20.36
2023-07-18T07:05:49.802Z,20.43
2023-07-18T07:08:20.373Z,20.59
2023-07-18T07:10:47.553Z,20.73
2023-07-18T07:13:14.503Z,20.74
2023-07-18T07:15:41.653Z,20.77
2023-07-18T07:18:08.694Z,20.86
2023-07-18T07:20:37.075Z,20.92
2023-07-18T07:23:04.191Z,20.93
2023-07-18T07:25:31.533Z,21.06
2023-07-18T07:27:58.583Z,21.14
2023-07-18T07:30:25.501Z,21.24
2023-07-18T07:32:55.412Z,21.36
2023-07-18T07:35:23.771Z,21.43
2023-07-18T07:37:52.108Z,21.47
2023-07-18T07:40:19.615Z,21.55
2023-07-18T07:42:47.376Z,21.62
2023-07-18T07:45:15.080Z,21.66
2023-07-18T07:47:41.977Z,21.79
2023-07-18T07:50:09.174Z,21.96
2023-07-18T07:52:36.563Z,22.05
2023-07-18T07:55:03.913Z,22.09
2023-07-18T07:57:31.020Z,22.05
2023-07-18T07:59:57.875Z,22.10
2023-07-18T08:02:24.796Z,22.18
2023-07-18T08:04:51.957Z,22.25
2023-07-18T08:07:19.697Z,22.34
2023-07-18T08:09:46.798Z,22.44
2023-07-18T08:12:14.110Z,22.54
2023-07-18T08:14:41.054Z,22.60
2023-07-18T08:17:08.534Z,22.62
2023-07-18T08:19:35.490Z,22.71
2023-07-18T08:22:03.701Z,22.86
2023-07-18T08:24:31.187Z,23.09
2023-07-18T08:26:58.959Z,23.31
2023-07-18T08:29:28.023Z,23.47
2023-07-18T08:31:58.039Z,23.55
2023-07-18T08:34:25.159Z,23.56
2023-07-18T08:36:52.035Z,23.64
2023-07-18T08:39:19.123Z,23.76
2023-07-18T08:41:46.923Z,23.91
2023-07-18T08:44:14.756Z,23.96
2023-07-18T08:46:44.181Z,23.96
2023-07-18T08:49:17.723Z,24.11
2023-07-18T08:51:44.913Z,24.26
2023-07-18T08:54:12.282Z,24.52
2023-07-18T08:56:41.652Z,24.67
2023-07-18T08:59:08.592Z,24.76
2023-07-18T09:01:36.472Z,24.78
2023-07-18T09:04:03.643Z,24.65
2023-07-18T09:06:30.604Z,24.55
2023-07-18T09:08:59.151Z,24.54
2023-07-18T09:11:26.046Z,24.66
2023-07-18T09:13:52.960Z,24.88
2023-07-18T09:16:23.241Z,24.86
2023-07-18T09:18:54.421Z,24.82
2023-07-18T09:21:21.765Z,24.89
2023-07-18T09:23:49.276Z,25.11
2023-07-18T09:26:17.530Z,25.39
2023-07-18T09:28:44.421Z,25.60
2023-07-18T09:31:21.836Z,25.79
2023-07-18T09:33:50.329Z,25.96
2023-07-18T09:36:24.652Z,26.14
2023-07-18T09:38:52.120Z,26.20
2023-07-18T09:41:21.857Z,26.28
2023-07-18T09:43:49.481Z,26.32
2023-07-18T09:46:17.306Z,26.32
2023-07-18T09:48:45.635Z,26.43
2023-07-18T09:51:16.635Z,26.50
2023-07-18T09:53:45.930Z,26.57
2023-07-18T09:56:15.597Z,26.76
2023-07-18T09:58:43.668Z,26.79
2023-07-18T10:01:13.016Z,26.64
2023-07-18T10:03:40.872Z,26.42
2023-07-18T10:06:10.677Z,26.37
2023-07-18T10:08:41.673Z,26.54
2023-07-18T10:11:09.419Z,26.65
2023-07-18T10:13:55.091Z,26.84
2023-07-18T10:16:22.854Z,26.90
2023-07-18T10:18:52.923Z,27.10
2023-07-18T10:21:33.820Z,27.12
2023-07-18T10:24:25.490Z,27.10
2023-07-18T10:26:52.972Z,27.19
2023-07-18T10:29:19.810Z,27.30
2023-07-18T10:31:47.247Z,27.58
2023-07-18T10:34:17.813Z,27.82
2023-07-18T10:36:56.824Z,27.61
2023-07-18T10:39:38.697Z,27.45
2023-07-18T10:42:22.546Z,27.39
2023-07-18T10:44:49.766Z,27.43
2023-07-18T10:47:18.085Z,27.38
2023-07-18T10:49:49.153Z,27.43
2023-07-18T10:52:23.258Z,27.44
2023-07-18T10:55:00.007Z,27.49
2023-07-18T10:57:34.280Z,27.84
2023-07-18T11:00:01.833Z,27.97
2023-07-18T11:02:36.476Z,27.78
2023-07-18T11:05:07.557Z,27.88
2023-07-18T11:07:35.542Z,28.12
2023-07-18T11:10:02.519Z,28.22
2023-07-18T11:12:29.448Z,28.53
2023-07-18T11:14:58.101Z,28.73
2023-07-18T11:17:27.100Z,29.10
2023-07-18T11:19:57.102Z,29.44
2023-07-18T11:22:24.024Z,29.87
2023-07-18T11:24:52.441Z,29.99
2023-07-18T11:27:19.455Z,29.96
2023-07-18T11:29:59.864Z,29.83
2023-07-18T11:32:34.357Z,29.71
2023-07-18T11:35:01.499Z,29.64
2023-07-18T11:37:31.825Z,29.63
2023-07-18T11:40:03.765Z,29.51
2023-07-18T11:42:43.302Z,29.36
2023-07-18T11:45:11.562Z,29.24
2023-07-18T11:47:44.319Z,29.34
2023-07-18T11:50:12.780Z,29.61
2023-07-18T11:52:41.512Z,29.83
2023-07-18T11:55:08.609Z,29.94
2023-07-18T11:57:35.548Z,29.94
2023-07-18T12:00:03.731Z,29.68
2023-07-18T12:02:40.191Z,29.25
2023-07-18T12:05:07.889Z,29.00
2023-07-18T12:07:36.958Z,28.87
2023-07-18T12:10:11.809Z,28.83
2023-07-18T12:12:42.371Z,28.90
2023-07-18T12:15:09.739Z,29.09
2023-07-18T12:17:37.269Z,29.27
2023-07-18T12:20:04.686Z,29.55
2023-07-18T12:22:32.528Z,29.80
2023-07-18T12:25:00.100Z,29.98
2023-07-18T12:27:26.997Z,30.07
2023-07-18T12:29:53.974Z,29.96
2023-07-18T12:34:48.874Z,29.32
2023-07-18T12:37:17.001Z,29.01
2023-07-18T12:39:44.364Z,28.96
2023-07-18T12:42:11.323Z,29.16
2023-07-18T12:44:40.031Z,29.10
2023-07-18T12:47:08.579Z,29.17
2023-07-18T12:52:09.188Z,29.09
2023-07-18T12:54:36.374Z,29.27
2023-07-18T12:57:03.556Z,29.79
2023-07-18T12:59:30.528Z,30.38
2023-07-18T13:01:57.942Z,30.97
2023-07-18T13:04:25.795Z,31.37
2023-07-18T13:06:53.100Z,31.68
2023-07-18T13:09:21.242Z,31.93
2023-07-18T13:11:51.446Z,32.09
2023-07-18T13:14:26.851Z,32.12
2023-07-18T13:16:53.869Z,32.27
2023-07-18T13:19:21.971Z,32.43
2023-07-18T13:21:48.872Z,32.81
2023-07-18T13:24:15.923Z,32.96
2023-07-18T13:26:42.863Z,33.13
2023-07-18T13:29:10.470Z,33.35
2023-07-18T13:31:38.059Z,33.65
2023-07-18T13:34:05.625Z,33.82
2023-07-18T13:36:33.058Z,33.60
2023-07-18T13:39:00.100Z,33.42
2023-07-18T13:41:27.025Z,33.10
2023-07-18T13:43:54.490Z,33.04
2023-07-18T13:46:22.112Z,33.26
2023-07-18T13:48:49.682Z,33.56
2023-07-18T13:51:17.008Z,33.91
2023-07-18T13:53:44.105Z,33.75
2023-07-18T13:56:11.057Z,33.40
2023-07-18T13:58:40.769Z,32.96
2023-07-18T14:01:08.102Z,33.04
2023-07-18T14:03:36.948Z,33.56
2023-07-18T14:06:04.760Z,33.54
2023-07-18T14:08:32.397Z,33.44
2023-07-18T14:10:59.429Z,33.01
2023-07-18T14:13:26.403Z,32.63
2023-07-18T14:15:56.779Z,32.48
2023-07-18T14:18:23.869Z,32.28
2023-07-18T14:20:50.971Z,32.16
2023-07-18T14:23:18.733Z,31.98
2023-07-18T14:25:47.354Z,31.74
2023-07-18T14:28:14.286Z,31.65
2023-07-18T14:30:41.294Z,31.56
2023-07-18T14:33:08.235Z,31.64
2023-07-18T14:35:35.207Z,31.93
2023-07-18T14:38:02.119Z,32.11
2023-07-18T14:40:29.106Z,32.18
2023-07-18T14:42:56.143Z,32.14
2023-07-18T14:45:23.069Z,31.96
2023-07-18T14:47:50.072Z,31.79
2023-07-18T14:50:17.193Z,31.59
2023-07-18T14:52:45.020Z,31.15
2023-07-18T14:55:12.314Z,30.71
2023-07-18T14:57:44.365Z,30.24
2023-07-18T15:00:11.736Z,29.98
2023-07-18T15:02:38.973Z,29.72
2023-07-18T15:05:16.525Z,29.61
2023-07-18T15:07:53.154Z,29.44
2023-07-18T15:10:20.428Z,29.32
2023-07-18T15:12:59.957Z,29.17
2023-07-18T15:15:48.360Z,29.11
2023-07-18T15:18:16.948Z,29.10
2023-07-18T15:21:14.040Z,29.04
2023-07-18T15:26:27.310Z,28.85
2023-07-18T15:32:01.512Z,28.55
2023-07-18T15:33:52.737Z,28.69
2023-07-18T15:34:58.928Z,28.55
2023-07-18T15:37:29.932Z,28.46
2023-07-18T15:40:00.291Z,28.46
2023-07-18T15:42:39.672Z,28.45
2023-07-18T15:45:06.815Z,28.43
2023-07-18T15:47:33.824Z,28.44
2023-07-18T15:50:01.552Z,28.43
2023-07-18T15:52:30.307Z,28.35
2023-07-18T15:55:01.845Z,28.22
2023-07-18T15:57:29.141Z,28.19
2023-07-18T15:59:56.081Z,28.17
2023-07-18T16:02:23.234Z,28.13
2023-07-18T16:04:50.253Z,28.20
2023-07-18T16:07:17.205Z,28.30
2023-07-18T16:09:52.102Z,28.36
2023-07-18T16:12:20.602Z,28.33
2023-07-18T16:14:47.642Z,28.21
2023-07-18T16:17:14.945Z,28.16
2023-07-18T16:19:45.395Z,28.21
2023-07-18T16:22:12.738Z,28.24
2023-07-18T16:24:41.161Z,28.26
2023-07-18T16:27:08.457Z,28.30
2023-07-18T16:29:35.718Z,28.31
2023-07-18T16:32:02.985Z,28.27
2023-07-18T16:34:30.984Z,28.27
2023-07-18T16:36:57.965Z,28.23
2023-07-18T16:39:24.898Z,28.15
2023-07-18T16:41:51.849Z,28.14
2023-07-18T16:44:20.944Z,28.14
2023-07-18T16:46:48.534Z,28.15
2023-07-18T16:49:15.748Z,28.13
2023-07-18T16:51:44.229Z,28.09
2023-07-18T16:54:11.159Z,28.14
2023-07-18T16:56:38.033Z,28.17
2023-07-18T16:59:04.949Z,28.20
2023-07-18T17:01:32.890Z,28.20
2023-07-18T17:04:00.952Z,28.31
2023-07-18T17:06:27.938Z,28.54
2023-07-18T17:08:54.778Z,28.88
2023-07-18T17:11:21.735Z,29.12
2023-07-18T17:13:51.552Z,29.23
2023-07-18T17:16:19.591Z,29.31
2023-07-18T17:18:46.753Z,29.38
2023-07-18T17:21:13.723Z,29.39
2023-07-18T17:23:40.530Z,29.46
2023-07-18T17:26:10.284Z,29.52
2023-07-18T17:28:37.675Z,29.42
2023-07-18T17:31:04.922Z,29.38
2023-07-18T17:33:31.949Z,29.48
2023-07-18T17:35:58.823Z,29.59
2023-07-18T17:38:25.670Z,29.69
2023-07-18T17:40:52.721Z,29.76
2023-07-18T17:43:19.535Z,29.78
2023-07-18T17:45:46.458Z,29.75
2023-07-18T17:48:13.304Z,29.67
2023-07-18T17:50:40.141Z,29.60
2023-07-18T17:53:07.489Z,29.53
2023-07-18T17:55:34.405Z,29.51
2023-07-18T17:58:01.960Z,29.43
2023-07-18T18:00:28.836Z,29.32
2023-07-18T18:02:55.861Z,29.18
2023-07-18T18:05:32.969Z,28.97
2023-07-18T18:08:00.602Z,28.72
2023-07-18T18:10:27.388Z,28.47
2023-07-18T18:12:54.215Z,28.29
2023-07-18T18:15:21.459Z,28.14
2023-07-18T18:17:49.165Z,28.06
2023-07-18T18:20:16.330Z,27.97
2023-07-18T18:22:43.203Z,27.86
2023-07-18T18:25:10.134Z,27.73
2023-07-18T18:27:36.987Z,27.61
2023-07-18T18:30:03.995Z,27.50
2023-07-18T18:32:31.045Z,27.39
2023-07-18T18:35:06.831Z,27.29
2023-07-18T18:37:35.230Z,27.20
2023-07-18T18:40:02.223Z,27.11
2023-07-18T18:42:29.046Z,26.96
2023-07-18T18:44:55.984Z,26.82
2023-07-18T18:47:22.818Z,26.71
2023-07-18T18:49:49.678Z,26.58
2023-07-18T18:52:16.465Z,26.49
2023-07-18T18:54:43.343Z,26.36
2023-07-18T18:57:10.200Z,26.26
2023-07-18T18:59:39.132Z,26.16
2023-07-18T19:02:06.649Z,26.06
2023-07-18T19:04:33.558Z,25.97
2023-07-18T19:07:00.583Z,25.89
2023-07-18T19:09:27.638Z,25.81
2023-07-18T19:11:54.438Z,25.71
2023-07-18T19:14:21.480Z,25.58
2023-07-18T19:16:48.504Z,25.44
2023-07-18T19:19:15.875Z,25.31
2023-07-18T19:21:42.763Z,25.20
2023-07-18T19:24:10.272Z,25.07
2023-07-18T19:26:37.224Z,24.97
2023-07-18T19:29:04.079Z,24.84
2023-07-18T19:31:31.066Z,24.70
2023-07-18T19:33:57.984Z,24.59
2023-07-18T19:36:24.940Z,24.47
2023-07-18T19:38:52.166Z,24.37
2023-07-18T19:41:19.388Z,24.30
2023-07-18T19:43:46.414Z,24.24
2023-07-18T19:46:13.557Z,24.17
2023-07-18T19:48:40.411Z,24.06
2023-07-18T19:51:07.243Z,23.97
2023-07-18T19:53:34.281Z,23.87
2023-07-18T19:56:01.165Z,23.79
2023-07-18T19:58:29.990Z,23.77
2023-07-18T20:00:58.407Z,23.70
2023-07-18T20:03:28.193Z,23.61
2023-07-18T20:05:55.998Z,23.53
2023-07-18T20:08:22.935Z,23.48
2023-07-18T20:10:49.805Z,23.44
2023-07-18T20:13:16.766Z,23.42
2023-07-18T20:15:44.140Z,23.43
2023-07-18T20:18:11.271Z,23.43
2023-07-18T20:20:38.278Z,23.43
2023-07-18T20:23:05.307Z,23.42
2023-07-18T20:25:32.252Z,23.38
2023-07-18T20:28:00.923Z,23.33
2023-07-18T20:30:27.813Z,23.32
2023-07-18T20:32:55.254Z,23.31
2023-07-18T20:35:22.991Z,23.27
2023-07-18T20:37:51.047Z,23.25
2023-07-18T20:40:17.982Z,23.22
2023-07-18T20:42:44.935Z,23.16
2023-07-18T20:45:11.938Z,23.08
2023-07-18T20:47:40.247Z,23.00
2023-07-18T20:50:07.442Z,22.95
2023-07-18T20:52:34.229Z,22.87
2023-07-18T20:55:01.028Z,22.81
2023-07-18T20:57:27.869Z,22.75
2023-07-18T20:59:54.751Z,22.68
2023-07-18T21:02:21.536Z,22.62
2023-07-18T21:04:48.454Z,22.53
2023-07-18T21:07:15.275Z,22.40
2023-07-18T21:09:42.116Z,22.38
2023-07-18T21:12:09.744Z,22.36
2023-07-18T21:14:36.569Z,22.29
2023-07-18T21:17:03.469Z,22.23
2023-07-18T21:19:30.396Z,22.18
2023-07-18T21:21:57.276Z,22.14
2023-07-18T21:24:24.504Z,22.09
2023-07-18T21:26:51.466Z,22.07
2023-07-18T21:29:18.484Z,22.04
2023-07-18T21:31:45.569Z,21.96
2023-07-18T21:34:12.450Z,21.88
2023-07-18T21:36:39.375Z,21.82
2023-07-18T21:39:06.628Z,21.79
2023-07-18T21:41:33.737Z,21.78
2023-07-18T21:44:00.763Z,21.72
2023-07-18T21:46:27.706Z,21.70
2023-07-18T21:48:54.940Z,21.62
2023-07-18T21:51:22.122Z,21.57
2023-07-18T21:53:49.218Z,21.44
2023-07-18T21:56:16.183Z,21.36
2023-07-18T21:58:43.015Z,21.31
2023-07-18T22:01:09.871Z,21.17
2023-07-18T22:03:36.803Z,21.11
2023-07-18T22:06:03.663Z,21.10
2023-07-18T22:08:30.930Z,21.04
2023-07-18T22:10:57.751Z,21.00
2023-07-18T22:13:24.960Z,20.89
2023-07-18T22:15:51.811Z,20.75
2023-07-18T22:18:27.309Z,20.72
2023-07-18T22:20:55.126Z,20.75
2023-07-18T22:23:21.994Z,20.73
2023-07-18T22:26:03.766Z,20.68
2023-07-18T22:28:35.624Z,20.68
2023-07-18T22:31:02.565Z,20.66
2023-07-18T22:33:29.399Z,20.62
2023-07-18T22:35:56.252Z,20.58
2023-07-18T22:38:23.083Z,20.55
2023-07-18T22:40:49.921Z,20.48
2023-07-18T22:43:16.727Z,20.42
2023-07-18T22:45:43.599Z,20.29
2023-07-18T22:48:10.413Z,20.26
2023-07-18T22:50:37.703Z,20.25
2023-07-18T22:53:06.843Z,20.29
2023-07-18T22:55:36.218Z,20.29
2023-07-18T22:58:03.611Z,20.28
2023-07-18T23:00:30.640Z,20.23
2023-07-18T23:02:57.811Z,20.19
2023-07-18T23:05:25.182Z,20.14
2023-07-18T23:08:10.564Z,20.10
2023-07-18T23:10:55.872Z,20.00
2023-07-18T23:13:22.823Z,19.93
2023-07-18T23:15:49.750Z,19.92
2023-07-18T23:18:17.591Z,19.90
2023-07-18T23:20:45.641Z,19.94
2023-07-18T23:25:46.437Z,19.91
2023-07-18T23:28:16.228Z,19.91
2023-07-18T23:30:44.211Z,19.84
2023-07-18T23:33:11.698Z,19.77
2023-07-18T23:35:38.626Z,19.70
2023-07-18T23:38:06.839Z,19.65
2023-07-18T23:40:33.800Z,19.63
2023-07-18T23:43:01.138Z,19.53
2023-07-18T23:45:29.455Z,19.56
2023-07-18T23:47:57.509Z,19.58
2023-07-18T23:50:25.442Z,19.61
2023-07-18T23:52:55.243Z,19.60
2023-07-18T23:55:22.649Z,19.52
2023-07-18T23:57:49.636Z,19.49
